Αρχική σελίδα
METAR-TAF:

METAR-TAF

Αεροδρόμια :

Αεροπορική Βάση

Anápolis, Γκοϊάς, Βραζιλία

γεωγραφικό πλάτος: 16-14S, γεωγραφικό μήκος: 048-58W, υψόμετρο: 1137 μ

Παρών καιρός

Η αναφορά έγινε 59 λεπτά πριν, στις 19:00 UTC
Άνεμος 5 kt από Α, μεταβλητός μεταξύ Β/BA και ΝA
Θερμοκρασία 26°C
Υγρασία 42%
Πίεση 1020 hPa
Ορατότητα 10 χλμ και άνω
Διάσπαρτα νέφη σε ύψος 4500 πόδια

METAR: SBAN 201900Z 09005KT 030V140 9999 SCT045 26/12 Q1020

Χρόνος: 16:59 (19:59 UTC)

Πρόγνωση Καιρού

Η αναφορά έγινε 4 ώρες και 59 λεπτά πριν, στις 15:00 UTC
Η πρόγνωση ισχύει από τις 20 στις 18 UTC έως τις 21 στις 06 UTC
Άνεμος 9 kt από Α/BA
Ορατότητα 10 χλμ και άνω
Δεν υπάρχουν νέφη με βάση κάτω από τα 1500 μ. και δεν υπάρχουν νέφη σωρειτομελανίτες.

TAF: SBAN 201500Z 2018/2106 06009KT CAVOK TX26/2018Z TN16/2105Z RMK PDG

Μετεωρολογικές αναφορές και προγνώσεις για περισσότερα από 4000 αεροδρόμια (δελτία METAR και TAF).

Οι διαθέσιμοι σταθμοί απεικονίζονται στο χάρτη με κίτρινες και κόκκινες κουκκίδες.

Μετακινήστε το ποντίκι πάνω από τις κουκκίδες για να δείτε το όνομα του σταθμού.

Στη συνέχεια, κάντε κλικ για να δείτε τις μετεωρολογικές αναφορές και τις προγνώσεις καιρού.

Για να αλλάξετε το χάρτη: κάντε κλικ στα πράσινα κουμπιά με τον μαύρο σταυρό για να ζουμάρετε, στο πράσινο κουμπί με την παύλα για να αφαιρέσετε το ζουμ ή στα πράσινα βέλη για να αντιπαραβάλλετε χάρτες.


METAR-TAF: